createdAt,value
2024-03-16T00:01:36.843Z,21.87
2024-03-16T00:04:04.305Z,20.37
2024-03-16T00:06:31.298Z,22.27
2024-03-16T00:08:58.606Z,21.70
2024-03-16T00:11:28.290Z,20.07
2024-03-16T00:13:55.572Z,21.77
2024-03-16T00:16:22.414Z,20.07
2024-03-16T00:18:49.717Z,22.03
2024-03-16T00:21:16.683Z,19.67
2024-03-16T00:23:44.420Z,20.50
2024-03-16T00:26:12.705Z,23.57
2024-03-16T00:28:40.047Z,22.27
2024-03-16T00:31:07.704Z,22.97
2024-03-16T00:33:35.174Z,20.80
2024-03-16T00:36:02.094Z,22.20
2024-03-16T00:38:30.051Z,22.43
2024-03-16T00:40:57.458Z,22.40
2024-03-16T00:43:24.729Z,22.03
2024-03-16T00:45:51.730Z,20.80
2024-03-16T00:48:19.010Z,20.00
2024-03-16T00:50:45.858Z,21.77
2024-03-16T00:53:13.045Z,21.07
2024-03-16T00:55:39.896Z,22.80
2024-03-16T00:58:07.366Z,23.83
2024-03-16T01:00:34.383Z,21.20
2024-03-16T01:03:01.566Z,20.40
2024-03-16T01:05:29.821Z,20.83
2024-03-16T01:07:57.511Z,21.47
2024-03-16T01:10:24.539Z,21.57
2024-03-16T01:12:52.120Z,20.23
2024-03-16T01:15:19.068Z,19.97
2024-03-16T01:17:46.299Z,20.20
2024-03-16T01:20:14.813Z,21.17
2024-03-16T01:22:42.019Z,21.47
2024-03-16T01:25:09.707Z,21.00
2024-03-16T01:27:37.156Z,22.47
2024-03-16T01:30:04.818Z,23.03
2024-03-16T01:32:32.067Z,22.20
2024-03-16T01:34:59.891Z,24.00
2024-03-16T01:37:27.031Z,22.43
2024-03-16T01:39:56.479Z,22.80
2024-03-16T01:42:23.690Z,22.17
2024-03-16T01:45:03.267Z,22.20
2024-03-16T01:47:32.879Z,21.47
2024-03-16T01:50:00.350Z,21.87
2024-03-16T01:52:27.719Z,24.13
2024-03-16T01:54:54.761Z,25.17
2024-03-16T01:57:22.013Z,25.13
2024-03-16T01:59:51.581Z,23.67
2024-03-16T02:02:38.067Z,24.10
2024-03-16T02:05:06.227Z,23.77
2024-03-16T02:07:39.568Z,23.87
2024-03-16T02:10:10.390Z,23.77
2024-03-16T02:12:38.489Z,23.77
2024-03-16T02:15:05.952Z,23.87
2024-03-16T02:17:33.267Z,23.73
2024-03-16T02:20:00.139Z,23.13
2024-03-16T02:22:27.360Z,23.77
2024-03-16T02:24:54.891Z,22.13
2024-03-16T02:27:22.096Z,23.47
2024-03-16T02:29:49.140Z,25.03
2024-03-16T02:32:16.366Z,23.47
2024-03-16T02:34:43.249Z,23.60
2024-03-16T02:37:10.725Z,23.77
2024-03-16T02:39:37.808Z,24.47
2024-03-16T02:42:06.048Z,23.13
2024-03-16T02:44:33.197Z,24.40
2024-03-16T02:47:00.773Z,22.30
2024-03-16T02:49:27.774Z,24.10
2024-03-16T02:51:55.115Z,22.87
2024-03-16T02:54:21.970Z,22.60
2024-03-16T02:56:49.404Z,23.67
2024-03-16T02:59:16.397Z,23.27
2024-03-16T03:01:43.753Z,24.10
2024-03-16T03:04:10.832Z,22.90
2024-03-16T03:06:39.648Z,23.37
2024-03-16T03:09:08.651Z,22.40
2024-03-16T03:11:38.884Z,23.70
2024-03-16T03:14:07.730Z,23.83
2024-03-16T03:16:35.160Z,23.73
2024-03-16T03:19:02.259Z,24.17
2024-03-16T03:21:30.548Z,22.67
2024-03-16T03:23:57.996Z,24.10
2024-03-16T03:26:25.281Z,23.33
2024-03-16T03:28:52.662Z,23.33
2024-03-16T03:31:19.986Z,21.50
2024-03-16T03:33:47.382Z,22.67
2024-03-16T03:36:14.683Z,22.93
2024-03-16T03:38:41.613Z,24.40
2024-03-16T03:41:09.392Z,25.23
2024-03-16T03:43:38.652Z,27.80
2024-03-16T03:46:06.416Z,23.47
2024-03-16T03:48:43.012Z,25.60
2024-03-16T03:51:10.512Z,23.10
2024-03-16T03:53:37.364Z,22.70
2024-03-16T03:56:04.835Z,22.57
2024-03-16T03:58:31.722Z,22.50
2024-03-16T04:00:59.441Z,22.43
2024-03-16T04:03:26.934Z,22.23
2024-03-16T04:05:54.486Z,21.97
2024-03-16T04:08:21.626Z,22.57
2024-03-16T04:10:49.006Z,21.13
2024-03-16T04:13:16.067Z,22.67
2024-03-16T04:15:43.895Z,22.33
2024-03-16T04:18:11.725Z,22.13
2024-03-16T04:20:39.826Z,22.83
2024-03-16T04:23:08.268Z,22.67
2024-03-16T04:25:35.635Z,22.80
2024-03-16T04:28:02.584Z,22.57
2024-03-16T04:30:29.940Z,22.17
2024-03-16T04:32:56.857Z,22.27
2024-03-16T04:35:24.032Z,21.37
2024-03-16T04:37:51.976Z,22.13
2024-03-16T04:40:19.950Z,21.93
2024-03-16T04:42:46.968Z,22.47
2024-03-16T04:45:14.307Z,22.47
2024-03-16T04:47:41.531Z,22.33
2024-03-16T04:50:08.881Z,22.77
2024-03-16T04:52:35.851Z,23.47
2024-03-16T04:55:04.540Z,21.97
2024-03-16T04:57:31.771Z,21.57
2024-03-16T04:59:59.064Z,22.97
2024-03-16T05:02:25.933Z,22.33
2024-03-16T05:04:54.796Z,23.60
2024-03-16T05:07:22.803Z,23.63
2024-03-16T05:09:50.664Z,23.37
2024-03-16T05:12:19.616Z,22.87
2024-03-16T05:14:47.015Z,22.93
2024-03-16T05:17:14.440Z,22.70
2024-03-16T05:19:41.634Z,23.97
2024-03-16T05:22:09.197Z,22.03
2024-03-16T05:24:36.486Z,22.47
2024-03-16T05:27:03.421Z,24.00
2024-03-16T05:29:30.542Z,22.27
2024-03-16T05:31:59.895Z,22.97
2024-03-16T05:34:27.592Z,23.17
2024-03-16T05:36:54.533Z,23.77
2024-03-16T05:39:21.845Z,22.27
2024-03-16T05:41:49.419Z,23.27
2024-03-16T05:44:16.693Z,23.90
2024-03-16T05:46:43.707Z,23.63
2024-03-16T05:49:11.065Z,22.47
2024-03-16T05:51:38.262Z,26.63
2024-03-16T05:54:05.943Z,38.20
2024-03-16T05:56:33.808Z,26.30
2024-03-16T05:59:01.374Z,24.33
2024-03-16T06:01:28.456Z,23.80
2024-03-16T06:03:56.631Z,23.07
2024-03-16T06:06:23.679Z,22.47
2024-03-16T06:08:50.911Z,27.40
2024-03-16T06:11:17.951Z,37.80
2024-03-16T06:13:45.631Z,31.40
2024-03-16T06:16:12.879Z,38.30
2024-03-16T06:18:44.246Z,26.53
2024-03-16T06:21:12.071Z,24.47
2024-03-16T06:23:39.573Z,26.17
2024-03-16T06:26:07.753Z,21.67
2024-03-16T06:28:38.227Z,21.00
2024-03-16T06:31:09.170Z,19.83
2024-03-16T06:33:37.917Z,20.07
2024-03-16T06:36:05.120Z,23.53
2024-03-16T06:38:32.403Z,34.37
2024-03-16T06:40:59.263Z,26.73
2024-03-16T06:43:26.558Z,24.20
2024-03-16T06:45:53.555Z,21.73
2024-03-16T06:48:21.205Z,23.57
2024-03-16T06:50:50.283Z,21.13
2024-03-16T06:53:17.589Z,20.50
2024-03-16T06:55:55.347Z,19.87
2024-03-16T06:58:25.862Z,19.37
2024-03-16T07:00:53.871Z,20.70
2024-03-16T07:03:22.047Z,19.70
2024-03-16T07:05:48.952Z,18.33
2024-03-16T07:08:18.534Z,19.23
2024-03-16T07:10:46.495Z,19.33
2024-03-16T07:13:13.974Z,19.43
2024-03-16T07:15:41.013Z,20.23
2024-03-16T07:18:08.676Z,17.83
2024-03-16T07:20:36.124Z,18.33
2024-03-16T07:23:03.961Z,19.67
2024-03-16T07:25:31.375Z,17.73
2024-03-16T07:27:58.750Z,18.20
2024-03-16T07:30:26.523Z,18.95
2024-03-16T07:32:53.958Z,17.92
2024-03-16T07:35:21.063Z,18.77
2024-03-16T07:37:48.334Z,18.23
2024-03-16T07:40:15.588Z,18.67
2024-03-16T07:42:43.349Z,17.88
2024-03-16T07:45:10.497Z,17.60
2024-03-16T07:47:38.166Z,17.05
2024-03-16T07:50:07.210Z,18.08
2024-03-16T07:52:35.280Z,16.90
2024-03-16T07:55:02.451Z,17.42
2024-03-16T07:57:29.999Z,17.33
2024-03-16T07:59:57.137Z,16.60
2024-03-16T08:02:24.472Z,18.33
2024-03-16T08:04:51.469Z,17.30
2024-03-16T08:07:18.670Z,16.65
2024-03-16T08:09:45.733Z,16.95
2024-03-16T08:12:13.251Z,16.65
2024-03-16T08:14:40.206Z,16.70
2024-03-16T08:17:08.532Z,17.98
2024-03-16T08:19:35.613Z,16.70
2024-03-16T08:22:04.249Z,16.17
2024-03-16T08:24:31.802Z,15.95
2024-03-16T08:26:59.016Z,16.67
2024-03-16T08:29:25.920Z,16.83
2024-03-16T08:31:53.094Z,16.88
2024-03-16T08:34:20.104Z,15.73
2024-03-16T08:36:47.335Z,15.70
2024-03-16T08:39:14.257Z,16.50
2024-03-16T08:41:41.669Z,16.08
2024-03-16T08:44:08.810Z,15.93
2024-03-16T08:46:36.151Z,16.95
2024-03-16T08:49:03.356Z,16.50
2024-03-16T08:51:30.610Z,16.38
2024-03-16T08:53:57.605Z,15.15
2024-03-16T08:56:29.032Z,15.32
2024-03-16T08:58:56.873Z,16.02
2024-03-16T09:01:24.372Z,15.70
2024-03-16T09:03:51.627Z,15.75
2024-03-16T09:06:18.840Z,15.98
2024-03-16T09:08:45.776Z,16.83
2024-03-16T09:11:12.997Z,15.77
2024-03-16T09:13:40.022Z,16.77
2024-03-16T09:16:07.555Z,15.82
2024-03-16T09:18:35.359Z,16.40
2024-03-16T09:21:04.121Z,16.48
2024-03-16T09:23:31.190Z,16.70
2024-03-16T09:25:58.724Z,16.45
2024-03-16T09:28:25.804Z,16.67
2024-03-16T09:30:56.681Z,16.38
2024-03-16T09:33:24.437Z,15.57
2024-03-16T09:35:54.748Z,18.10
2024-03-16T09:38:21.755Z,16.50
2024-03-16T09:40:57.254Z,16.80
